Ronks, Pennsylvania
Current Conditions -  °F | °C
As of 12:53 AM on Saturday 29 Nov 2014 (Local Time) from KLNS Reporting Station
Overcast Overcast  
Wind Chill: -4°   Ceiling: 11000
Heat Index: -4°   Visibility: 10mi
Dew Point: -8°   Wind: 0mph
Humidity: 72%   Direction: NA
Pressure: 30.28"   Gusts: NA
Location:  40.03°N, 76.17°W
Report Text: KLNS 290553Z AUTO 00000KT 10SM OVC110 M04/M08 A3028 RMK AO2 SLP259 T10391083 11017 21050 53007
Loading
Personal Weather Stations






























Interactive Weather Map New forecast layout! Learn more

10-Day Weather Forecast

Advertisements
Track Severe Weather on mobile